createdAt,value
2018-09-25T00:02:03.223Z,22.73
2018-09-25T00:04:36.191Z,22.74
2018-09-25T00:07:09.303Z,22.73
2018-09-25T00:09:42.384Z,22.72
2018-09-25T00:12:15.465Z,22.70
2018-09-25T00:14:48.565Z,22.70
2018-09-25T00:17:21.642Z,22.69
2018-09-25T00:19:54.758Z,22.70
2018-09-25T00:22:27.789Z,22.69
2018-09-25T00:25:01.458Z,22.68
2018-09-25T00:27:34.467Z,22.69
2018-09-25T00:30:07.620Z,22.68
2018-09-25T00:32:40.725Z,22.67
2018-09-25T00:35:13.772Z,22.67
2018-09-25T00:37:46.880Z,22.67
2018-09-25T00:40:20.121Z,22.66
2018-09-25T00:42:53.306Z,22.66
2018-09-25T00:45:26.415Z,22.67
2018-09-25T00:47:59.543Z,22.64
2018-09-25T00:50:32.595Z,22.63
2018-09-25T00:53:05.625Z,22.64
2018-09-25T00:55:38.435Z,22.64
2018-09-25T00:58:11.610Z,22.62
2018-09-25T01:00:44.814Z,22.64
2018-09-25T01:03:17.868Z,22.62
2018-09-25T01:05:50.937Z,22.25
2018-09-25T01:08:24.040Z,22.62
2018-09-25T01:10:57.157Z,22.60
2018-09-25T01:13:30.050Z,22.60
2018-09-25T01:16:03.012Z,22.61
2018-09-25T01:18:36.223Z,22.60
2018-09-25T01:21:09.342Z,22.59
2018-09-25T01:23:42.464Z,22.60
2018-09-25T01:26:15.549Z,22.60
2018-09-25T01:28:48.688Z,22.59
2018-09-25T01:31:21.675Z,22.59
2018-09-25T01:33:54.774Z,22.57
2018-09-25T01:36:27.794Z,22.57
2018-09-25T01:39:00.853Z,22.57
2018-09-25T01:41:33.925Z,22.56
2018-09-25T01:44:06.774Z,22.56
2018-09-25T01:46:39.904Z,22.54
2018-09-25T01:49:12.926Z,22.56
2018-09-25T01:51:45.921Z,22.55
2018-09-25T01:54:18.958Z,22.54
2018-09-25T01:56:51.945Z,22.53
2018-09-25T01:59:24.750Z,22.54
2018-09-25T02:01:57.856Z,22.50
2018-09-25T02:04:31.030Z,22.50
2018-09-25T02:07:04.224Z,22.50
2018-09-25T02:09:37.151Z,22.49
2018-09-25T02:12:10.321Z,22.49
2018-09-25T02:14:43.178Z,22.49
2018-09-25T02:17:16.302Z,22.50
2018-09-25T02:19:49.493Z,22.50
2018-09-25T02:22:22.488Z,22.49
2018-09-25T02:24:55.437Z,22.48
2018-09-25T02:27:28.592Z,22.46
2018-09-25T02:30:01.739Z,22.47
2018-09-25T02:32:34.885Z,22.45
2018-09-25T02:35:07.945Z,22.47
2018-09-25T02:37:41.107Z,22.45
2018-09-25T02:40:14.278Z,22.44
2018-09-25T02:42:47.413Z,22.45
2018-09-25T02:45:20.544Z,22.43
2018-09-25T02:47:53.562Z,22.42
2018-09-25T02:50:26.700Z,22.43
2018-09-25T02:52:59.799Z,22.43
2018-09-25T02:55:32.870Z,22.43
2018-09-25T02:58:05.898Z,22.41
2018-09-25T03:00:38.981Z,22.41
2018-09-25T03:03:12.191Z,22.41
2018-09-25T03:05:45.300Z,22.34
2018-09-25T03:08:18.491Z,22.40
2018-09-25T03:10:51.672Z,22.39
2018-09-25T03:13:24.744Z,22.39
2018-09-25T03:15:57.737Z,22.38
2018-09-25T03:18:30.681Z,22.39
2018-09-25T03:21:03.623Z,22.38
2018-09-25T03:23:36.784Z,22.38
2018-09-25T03:26:09.763Z,22.38
2018-09-25T03:28:42.854Z,22.35
2018-09-25T03:31:15.976Z,22.36
2018-09-25T03:33:49.146Z,22.36
2018-09-25T03:36:22.156Z,22.36
2018-09-25T03:38:55.226Z,22.35
2018-09-25T03:41:28.309Z,22.35
2018-09-25T03:44:01.402Z,22.34
2018-09-25T03:46:34.501Z,22.34
2018-09-25T03:49:07.722Z,22.34
2018-09-25T03:51:40.812Z,22.32
2018-09-25T03:54:13.915Z,22.31
2018-09-25T03:56:46.953Z,22.32
2018-09-25T03:59:19.921Z,22.31
2018-09-25T04:01:52.800Z,22.29
2018-09-25T04:04:25.997Z,22.30
2018-09-25T04:06:58.912Z,22.29
2018-09-25T04:09:31.987Z,22.29
2018-09-25T04:12:05.079Z,22.30
2018-09-25T04:14:38.111Z,22.27
2018-09-25T04:17:11.185Z,22.28
2018-09-25T04:19:44.233Z,22.27
2018-09-25T04:22:17.234Z,22.27
2018-09-25T04:24:50.098Z,22.27
2018-09-25T04:27:23.255Z,22.26
2018-09-25T04:29:56.389Z,22.25
2018-09-25T04:32:29.475Z,22.25
2018-09-25T04:35:02.579Z,22.25
2018-09-25T04:37:35.768Z,22.24
2018-09-25T04:40:08.965Z,22.25
2018-09-25T04:42:41.976Z,22.24
2018-09-25T04:45:14.952Z,22.25
2018-09-25T04:47:48.112Z,22.24
2018-09-25T04:50:21.188Z,22.21
2018-09-25T04:52:54.301Z,22.21
2018-09-25T04:55:27.313Z,22.20
2018-09-25T04:58:00.492Z,22.20
2018-09-25T05:00:33.632Z,22.20
2018-09-25T05:03:06.649Z,22.20
2018-09-25T05:05:39.616Z,22.20
2018-09-25T05:08:12.516Z,22.18
2018-09-25T05:10:45.504Z,22.18
2018-09-25T05:13:18.498Z,22.18
2018-09-25T05:15:51.520Z,22.17
2018-09-25T05:18:24.714Z,22.17
2018-09-25T05:20:57.710Z,22.17
2018-09-25T05:23:30.882Z,22.17
2018-09-25T05:26:03.812Z,22.18
2018-09-25T05:28:37.014Z,22.17
2018-09-25T05:31:10.060Z,22.17
2018-09-25T05:33:43.146Z,22.17
2018-09-25T05:36:16.141Z,22.17
2018-09-25T05:38:49.338Z,22.16
2018-09-25T05:41:22.423Z,22.15
2018-09-25T05:43:55.342Z,22.14
2018-09-25T05:46:28.364Z,22.12
2018-09-25T05:49:01.498Z,22.13
2018-09-25T05:51:34.390Z,22.13
2018-09-25T05:54:07.508Z,22.14
2018-09-25T05:56:40.661Z,22.13
2018-09-25T05:59:13.786Z,22.13
2018-09-25T06:01:46.922Z,22.13
2018-09-25T06:04:19.954Z,22.14
2018-09-25T06:06:53.103Z,22.12
2018-09-25T06:09:26.368Z,22.12
2018-09-25T06:11:59.262Z,22.12
2018-09-25T06:14:32.378Z,22.09
2018-09-25T06:17:05.242Z,22.11
2018-09-25T06:19:38.209Z,22.12
2018-09-25T06:22:11.310Z,22.12
2018-09-25T06:24:44.501Z,22.13
2018-09-25T06:27:17.389Z,22.15
2018-09-25T06:29:50.595Z,22.16
2018-09-25T06:32:23.679Z,22.16
2018-09-25T06:34:56.597Z,22.16
2018-09-25T06:37:29.551Z,22.14
2018-09-25T06:40:02.492Z,22.15
2018-09-25T06:42:35.510Z,22.14
2018-09-25T06:45:08.520Z,22.14
2018-09-25T06:47:41.681Z,22.14
2018-09-25T06:50:14.543Z,22.13
2018-09-25T06:52:47.550Z,22.13
2018-09-25T06:55:20.571Z,22.14
2018-09-25T06:57:53.356Z,22.13
2018-09-25T07:00:26.422Z,22.15
2018-09-25T07:02:59.480Z,22.14
2018-09-25T07:05:32.486Z,22.14
2018-09-25T07:08:05.480Z,22.13
2018-09-25T07:10:38.485Z,22.13
2018-09-25T07:13:11.530Z,22.12
2018-09-25T07:15:44.530Z,22.13
2018-09-25T07:18:17.398Z,22.14
2018-09-25T07:20:50.600Z,22.12
2018-09-25T07:23:23.681Z,22.13
2018-09-25T07:25:56.706Z,22.14
2018-09-25T07:28:29.759Z,22.13
2018-09-25T07:31:02.830Z,22.15
2018-09-25T07:33:35.882Z,22.15
2018-09-25T07:36:08.959Z,22.16
2018-09-25T07:38:42.254Z,22.16
2018-09-25T07:41:15.485Z,22.16
2018-09-25T07:43:48.564Z,22.18
2018-09-25T07:46:22.046Z,22.19
2018-09-25T07:48:55.212Z,22.20
2018-09-25T07:51:28.585Z,22.20
2018-09-25T07:54:01.772Z,22.22
2018-09-25T07:56:35.007Z,22.21
2018-09-25T07:59:08.004Z,22.21
2018-09-25T08:01:41.301Z,22.23
2018-09-25T08:04:14.262Z,22.23
2018-09-25T08:06:47.305Z,22.22
2018-09-25T08:09:20.137Z,22.21
2018-09-25T08:11:53.262Z,22.21
2018-09-25T08:14:26.417Z,22.20
2018-09-25T08:16:59.560Z,22.20
2018-09-25T08:19:32.942Z,22.24
2018-09-25T08:22:06.069Z,22.24
2018-09-25T08:24:39.242Z,22.24
2018-09-25T08:27:12.657Z,22.25
2018-09-25T08:29:45.822Z,22.26
2018-09-25T08:32:18.884Z,22.02
2018-09-25T08:34:52.067Z,22.22
2018-09-25T08:37:25.019Z,22.13
2018-09-25T08:39:57.966Z,22.13
2018-09-25T08:42:31.171Z,22.14
2018-09-25T08:45:04.235Z,22.13
2018-09-25T08:47:37.436Z,22.14
2018-09-25T08:50:10.592Z,22.15
2018-09-25T08:52:43.886Z,22.17
2018-09-25T08:55:17.036Z,22.14
2018-09-25T08:57:50.170Z,22.17
2018-09-25T09:00:23.402Z,22.17
2018-09-25T09:02:56.694Z,22.16
2018-09-25T09:05:30.191Z,22.17
2018-09-25T09:08:03.603Z,22.17
2018-09-25T09:10:36.829Z,22.17
2018-09-25T09:13:10.067Z,22.17
2018-09-25T09:15:43.593Z,22.16
2018-09-25T09:18:16.802Z,22.18
2018-09-25T09:20:50.058Z,22.17
2018-09-25T09:23:22.975Z,22.17
2018-09-25T09:25:55.901Z,22.16
2018-09-25T09:28:29.149Z,22.14
2018-09-25T09:31:02.245Z,22.15
2018-09-25T09:33:34.975Z,22.16
2018-09-25T09:36:07.903Z,22.16
2018-09-25T09:38:40.802Z,22.15
2018-09-25T09:41:13.681Z,22.15
2018-09-25T09:43:46.759Z,22.16
2018-09-25T09:46:19.823Z,22.16
2018-09-25T09:48:52.601Z,22.15
2018-09-25T09:51:25.619Z,22.15
2018-09-25T09:53:58.624Z,22.15
2018-09-25T09:56:31.804Z,22.17
2018-09-25T09:59:04.684Z,22.16
2018-09-25T10:01:37.789Z,22.17
2018-09-25T10:04:10.724Z,22.19
2018-09-25T10:06:43.783Z,22.18
2018-09-25T10:09:16.855Z,22.20
2018-09-25T10:11:49.949Z,22.17
2018-09-25T10:14:22.974Z,22.21
2018-09-25T10:16:55.750Z,22.22
2018-09-25T10:19:28.801Z,22.24
2018-09-25T10:22:01.688Z,22.23
2018-09-25T10:24:34.686Z,22.24
2018-09-25T10:27:07.645Z,22.24
2018-09-25T10:29:40.433Z,22.26
2018-09-25T10:32:13.548Z,22.26
2018-09-25T10:34:46.322Z,22.26
2018-09-25T10:37:19.181Z,22.25
2018-09-25T10:39:52.106Z,22.26
2018-09-25T10:42:24.993Z,22.25
2018-09-25T10:44:58.138Z,22.24
2018-09-25T10:47:31.106Z,22.25
2018-09-25T10:50:04.185Z,22.26
2018-09-25T10:52:37.037Z,22.26
2018-09-25T10:55:10.082Z,22.27
2018-09-25T10:57:43.041Z,22.27
2018-09-25T11:00:16.146Z,22.27
2018-09-25T11:02:49.125Z,22.27
2018-09-25T11:05:22.026Z,22.28
2018-09-25T11:07:55.168Z,22.28
2018-09-25T11:10:27.969Z,22.29
2018-09-25T11:13:00.877Z,22.30
2018-09-25T11:15:33.946Z,22.30
2018-09-25T11:18:07.105Z,22.32
2018-09-25T11:20:40.114Z,22.31
2018-09-25T11:23:13.218Z,22.32
2018-09-25T11:25:46.025Z,22.33
2018-09-25T11:28:18.853Z,22.34
2018-09-25T11:30:51.686Z,22.33
2018-09-25T11:33:24.601Z,22.34
2018-09-25T11:35:57.565Z,22.35
2018-09-25T11:38:30.485Z,22.37
2018-09-25T11:41:03.572Z,22.38
2018-09-25T11:43:36.697Z,22.36
2018-09-25T11:46:09.891Z,22.37
2018-09-25T11:48:43.042Z,22.38
2018-09-25T11:51:16.183Z,22.37
2018-09-25T11:53:49.329Z,22.36
2018-09-25T11:56:22.515Z,22.38
2018-09-25T11:58:55.581Z,22.39
2018-09-25T12:01:28.726Z,22.40
2018-09-25T12:04:01.862Z,22.39
2018-09-25T12:06:35.011Z,22.42
2018-09-25T12:09:07.923Z,22.42
2018-09-25T12:11:40.852Z,22.41
2018-09-25T12:14:13.841Z,22.41
2018-09-25T12:16:46.916Z,22.40
2018-09-25T12:19:20.085Z,22.39
2018-09-25T12:21:53.266Z,22.41
2018-09-25T12:24:26.317Z,22.40
2018-09-25T12:26:59.390Z,22.41
2018-09-25T12:29:32.564Z,22.40
2018-09-25T12:32:05.557Z,22.41
2018-09-25T12:34:38.450Z,22.41
2018-09-25T12:37:11.736Z,22.39
2018-09-25T12:39:44.882Z,22.41
2018-09-25T12:42:18.048Z,22.40
2018-09-25T12:44:51.022Z,22.41
2018-09-25T12:47:24.092Z,22.41
2018-09-25T12:49:57.180Z,22.44
2018-09-25T12:52:30.273Z,22.44
2018-09-25T12:55:03.156Z,22.45
2018-09-25T12:57:36.297Z,22.44
2018-09-25T13:00:09.201Z,22.45
2018-09-25T13:02:42.226Z,22.45
2018-09-25T13:05:15.264Z,22.47
2018-09-25T13:07:48.287Z,22.45
2018-09-25T13:10:21.416Z,22.46
2018-09-25T13:12:54.368Z,22.49
2018-09-25T13:15:27.456Z,22.48
2018-09-25T13:18:00.424Z,22.47
2018-09-25T13:20:33.480Z,22.47
2018-09-25T13:23:06.567Z,22.46
2018-09-25T13:25:39.589Z,22.49
2018-09-25T13:28:12.665Z,22.48
2018-09-25T13:30:45.608Z,22.49
2018-09-25T13:33:18.740Z,22.48
2018-09-25T13:35:51.737Z,22.51
2018-09-25T13:38:24.846Z,22.51
2018-09-25T13:40:57.883Z,22.52
2018-09-25T13:43:30.942Z,22.52
2018-09-25T13:46:04.028Z,22.52
2018-09-25T13:48:37.102Z,22.57
2018-09-25T13:51:10.079Z,22.53
2018-09-25T13:53:42.859Z,22.53
2018-09-25T13:56:15.794Z,22.53
2018-09-25T13:58:48.724Z,22.54
2018-09-25T14:01:21.626Z,22.52
2018-09-25T14:03:54.700Z,22.50
2018-09-25T14:06:27.682Z,22.50
2018-09-25T14:09:00.807Z,22.51
2018-09-25T14:11:33.763Z,22.53
2018-09-25T14:14:06.806Z,22.54
2018-09-25T14:16:39.848Z,22.53
2018-09-25T14:19:12.974Z,22.55
2018-09-25T14:21:45.783Z,22.57
2018-09-25T14:24:18.649Z,22.55
2018-09-25T14:26:51.613Z,22.55
2018-09-25T14:29:24.608Z,22.53
2018-09-25T14:31:57.554Z,22.53
2018-09-25T14:34:30.688Z,22.56
2018-09-25T14:37:03.753Z,22.56
2018-09-25T14:39:36.697Z,22.55
2018-09-25T14:42:09.746Z,22.56
2018-09-25T14:44:42.830Z,22.55
2018-09-25T14:47:15.688Z,22.55
2018-09-25T14:49:48.747Z,22.57
2018-09-25T14:52:21.553Z,22.55
2018-09-25T14:54:54.579Z,22.56
2018-09-25T14:57:27.370Z,22.56
2018-09-25T15:00:00.252Z,22.56
2018-09-25T15:02:33.313Z,22.57
2018-09-25T15:05:06.413Z,22.57
2018-09-25T15:07:39.410Z,22.55
2018-09-25T15:10:12.347Z,22.56
2018-09-25T15:12:45.333Z,22.56
2018-09-25T15:15:18.444Z,22.56
2018-09-25T15:17:51.298Z,22.56
2018-09-25T15:20:24.213Z,22.53
2018-09-25T15:22:57.052Z,22.55
2018-09-25T15:25:29.908Z,22.55
2018-09-25T15:28:02.734Z,22.58
2018-09-25T15:30:35.654Z,22.59
2018-09-25T15:33:08.661Z,22.57
2018-09-25T15:35:41.550Z,22.57
2018-09-25T15:38:14.549Z,22.56
2018-09-25T15:40:47.436Z,22.55
2018-09-25T15:43:20.338Z,22.55
2018-09-25T15:45:53.553Z,22.57
2018-09-25T15:48:26.405Z,22.56
2018-09-25T15:50:59.230Z,22.57
2018-09-25T15:53:32.174Z,22.56
2018-09-25T15:56:05.214Z,22.57
2018-09-25T15:58:38.138Z,22.57
2018-09-25T16:01:10.973Z,22.57
2018-09-25T16:03:43.889Z,22.57
2018-09-25T16:06:16.988Z,22.56
2018-09-25T16:08:49.841Z,22.57
2018-09-25T16:11:22.917Z,22.54
2018-09-25T16:13:56.013Z,22.52
2018-09-25T16:16:29.102Z,22.53
2018-09-25T16:19:02.240Z,22.52
2018-09-25T16:21:35.721Z,22.51
2018-09-25T16:24:08.671Z,22.51
2018-09-25T16:26:41.667Z,22.50
2018-09-25T16:29:15.376Z,22.50
2018-09-25T16:31:48.341Z,22.50
2018-09-25T16:34:21.474Z,22.48
2018-09-25T16:36:54.358Z,22.48
2018-09-25T16:39:27.812Z,22.47
2018-09-25T16:42:00.804Z,22.46
2018-09-25T16:44:33.977Z,22.46
2018-09-25T16:47:07.108Z,22.44
2018-09-25T16:49:40.205Z,22.43
2018-09-25T16:52:13.355Z,22.45
2018-09-25T16:54:46.437Z,22.44
2018-09-25T16:57:19.505Z,22.43
2018-09-25T16:59:52.545Z,22.44
2018-09-25T17:02:25.517Z,22.41
2018-09-25T17:04:58.577Z,22.39
2018-09-25T17:07:31.512Z,22.41
2018-09-25T17:10:04.496Z,22.39
2018-09-25T17:12:37.398Z,22.38
2018-09-25T17:15:10.425Z,22.41
2018-09-25T17:17:43.333Z,22.40
2018-09-25T17:20:16.439Z,22.40
2018-09-25T17:22:49.245Z,22.41
2018-09-25T17:25:22.252Z,22.40
2018-09-25T17:27:55.054Z,22.36
2018-09-25T17:30:28.198Z,22.35
2018-09-25T17:33:01.161Z,22.35
2018-09-25T17:35:34.298Z,22.34
2018-09-25T17:38:07.383Z,22.35
2018-09-25T17:40:40.549Z,22.34
2018-09-25T17:43:13.643Z,22.33
2018-09-25T17:45:46.633Z,22.34
2018-09-25T17:48:19.591Z,22.35
2018-09-25T17:50:52.706Z,22.33
2018-09-25T17:53:25.824Z,22.34
2018-09-25T17:55:58.899Z,22.34
2018-09-25T17:58:31.796Z,22.30
2018-09-25T18:01:04.760Z,22.30
2018-09-25T18:03:37.809Z,22.30
2018-09-25T18:06:10.730Z,22.29
2018-09-25T18:08:43.754Z,22.29
2018-09-25T18:11:16.639Z,22.28
2018-09-25T18:13:49.467Z,22.25
2018-09-25T18:16:22.563Z,22.27
2018-09-25T18:18:55.581Z,22.26
2018-09-25T18:21:28.736Z,22.26
2018-09-25T18:24:01.860Z,22.24
2018-09-25T18:26:34.928Z,22.26
2018-09-25T18:29:08.018Z,22.25
2018-09-25T18:31:41.113Z,22.25
2018-09-25T18:34:14.038Z,22.25
2018-09-25T18:36:47.296Z,22.23
2018-09-25T18:39:20.322Z,22.23
2018-09-25T18:41:53.441Z,22.23
2018-09-25T18:44:26.505Z,22.23
2018-09-25T18:46:59.583Z,22.24
2018-09-25T18:49:32.774Z,22.25
2018-09-25T18:52:05.639Z,22.22
2018-09-25T18:54:38.674Z,22.21
2018-09-25T18:57:11.800Z,22.19
2018-09-25T18:59:45.794Z,22.20
2018-09-25T19:02:18.928Z,22.20
2018-09-25T19:04:52.154Z,22.21
2018-09-25T19:07:25.288Z,22.23
2018-09-25T19:09:58.455Z,22.20
2018-09-25T19:12:31.573Z,22.21
2018-09-25T19:15:04.730Z,22.23
2018-09-25T19:17:37.895Z,22.20
2018-09-25T19:20:11.040Z,22.21
2018-09-25T19:22:44.149Z,22.19
2018-09-25T19:25:17.074Z,22.19
2018-09-25T19:27:56.412Z,22.19
2018-09-25T19:30:29.165Z,22.19
2018-09-25T19:33:02.268Z,22.17
2018-09-25T19:35:35.326Z,22.17
2018-09-25T19:38:08.184Z,22.16
2018-09-25T19:40:41.258Z,22.15
2018-09-25T19:43:14.334Z,22.14
2018-09-25T19:45:47.474Z,22.13
2018-09-25T19:48:20.590Z,22.12
2018-09-25T19:50:53.648Z,22.13
2018-09-25T19:53:26.785Z,22.11
2018-09-25T19:55:59.853Z,22.10
2018-09-25T19:58:32.721Z,22.11
2018-09-25T20:01:05.621Z,22.10
2018-09-25T20:03:38.605Z,22.10
2018-09-25T20:06:11.702Z,22.10
2018-09-25T20:08:44.791Z,22.08
2018-09-25T20:11:17.875Z,22.06
2018-09-25T20:13:50.991Z,22.07
2018-09-25T20:16:23.838Z,22.07
2018-09-25T20:18:56.793Z,22.07
2018-09-25T20:21:29.637Z,22.07
2018-09-25T20:24:02.578Z,22.08
2018-09-25T20:26:35.629Z,22.07
2018-09-25T20:29:08.577Z,22.07
2018-09-25T20:31:41.521Z,22.06
2018-09-25T20:34:14.530Z,22.06
2018-09-25T20:36:47.701Z,22.06
2018-09-25T20:39:20.880Z,22.06
2018-09-25T20:41:54.053Z,22.05
2018-09-25T20:44:27.146Z,22.06
2018-09-25T20:47:00.309Z,22.03
2018-09-25T20:49:33.165Z,22.04
2018-09-25T20:52:06.258Z,22.03
2018-09-25T20:54:39.241Z,22.03
2018-09-25T20:57:12.356Z,22.03
2018-09-25T20:59:45.433Z,22.01
2018-09-25T21:02:18.581Z,22.00
2018-09-25T21:04:51.730Z,22.00
2018-09-25T21:07:24.823Z,21.98
2018-09-25T21:09:57.906Z,21.99
2018-09-25T21:12:30.915Z,22.00
2018-09-25T21:15:03.785Z,21.98
2018-09-25T21:17:36.872Z,21.99
2018-09-25T21:20:10.005Z,21.98
2018-09-25T21:22:43.090Z,21.96
2018-09-25T21:25:16.208Z,21.97
2018-09-25T21:27:49.286Z,21.98
2018-09-25T21:30:22.386Z,21.97
2018-09-25T21:32:55.513Z,21.94
2018-09-25T21:35:28.426Z,21.93
2018-09-25T21:38:01.474Z,21.95
2018-09-25T21:40:34.585Z,21.92
2018-09-25T21:43:07.645Z,21.93
2018-09-25T21:45:40.744Z,21.92
2018-09-25T21:48:13.669Z,21.91
2018-09-25T21:50:46.874Z,21.93
2018-09-25T21:53:19.957Z,21.91
2018-09-25T21:55:53.081Z,21.89
2018-09-25T21:58:26.234Z,21.89
2018-09-25T22:00:59.414Z,21.91
2018-09-25T22:03:32.467Z,21.89
2018-09-25T22:06:05.561Z,21.91
2018-09-25T22:08:38.673Z,21.89
2018-09-25T22:11:11.521Z,21.88
2018-09-25T22:13:44.501Z,21.88
2018-09-25T22:16:17.545Z,21.87
2018-09-25T22:18:50.642Z,21.87
2018-09-25T22:21:23.730Z,21.86
2018-09-25T22:23:56.922Z,21.87
2018-09-25T22:26:29.990Z,21.84
2018-09-25T22:29:03.119Z,21.86
2018-09-25T22:31:36.244Z,21.85
2018-09-25T22:34:09.326Z,21.84
2018-09-25T22:36:42.505Z,21.83
2018-09-25T22:39:15.638Z,21.84
2018-09-25T22:41:48.714Z,21.83
2018-09-25T22:44:22.085Z,21.83
2018-09-25T22:46:55.202Z,21.80
2018-09-25T22:49:28.392Z,21.81
2018-09-25T22:52:01.469Z,21.81
2018-09-25T22:54:34.552Z,21.79
2018-09-25T22:57:07.543Z,21.80
2018-09-25T22:59:40.608Z,21.80
2018-09-25T23:02:13.612Z,21.72
2018-09-25T23:04:46.716Z,21.76
2018-09-25T23:07:19.729Z,21.76
2018-09-25T23:09:52.714Z,21.77
2018-09-25T23:12:25.643Z,21.76
2018-09-25T23:14:58.638Z,21.76
2018-09-25T23:17:31.641Z,21.76
2018-09-25T23:20:04.817Z,21.75
2018-09-25T23:22:37.885Z,21.75
2018-09-25T23:25:11.011Z,21.76
2018-09-25T23:27:43.894Z,21.75
2018-09-25T23:30:17.021Z,21.75
2018-09-25T23:32:50.146Z,21.73
2018-09-25T23:35:23.249Z,21.74
2018-09-25T23:37:56.386Z,21.73
2018-09-25T23:40:29.570Z,21.73
2018-09-25T23:43:01.486Z,21.72
2018-09-25T23:47:43.393Z,21.71
2018-09-25T23:50:30.417Z,21.70
2018-09-25T23:53:05.541Z,21.70
2018-09-25T23:55:40.425Z,21.69
2018-09-25T23:58:13.393Z,21.69
